Impacts METAR Board INFO
IDs:

KMIA - Miami Intl, FL, US

Updated at: 0717 UTC 16 Dec 2017
Potential Impact None Slight Moderate High
Time15/19Z 15/20Z 15/21Z 15/22Z 15/23Z 16/00Z 16/01Z 16/02Z 16/03Z 16/04Z 16/05Z 16/06Z 16/07Z
VIS10 10 10 10 10 10 10 10 10 10 10 10 10
CIG250 250 250 250 250 250 -- -- -- 250 250 250 250
CoverBKNBKNBKNBKNBKNBKNSCTSCTSCTBKNBKNBKNBKN
FltCatVFRVFRVFRVFRVFRVFRVFRVFRVFRVFRVFRVFRVFR
WX--------------------------
WDir230130110140015000027003300
WSpd4 8 6 5 0 4 0 0 0 5 0 4 0
WGst-- -- -- -- -- -- -- -- -- -- -- -- --
Raw hourly METARs
KMIA 151853Z 23004KT 10SM FEW035 BKN250 26/11 A3006 RMK AO2 SLP180 T02560111
KMIA 151953Z 13008KT 10SM FEW035 BKN250 25/15 A3006 RMK AO2 SLP180 T02500150
KMIA 152053Z 11006KT 10SM BKN250 25/15 A3006 RMK AO2 SLP181 T02500150 55005
KMIA 152153Z 14005KT 10SM BKN250 24/15 A3008 RMK AO2 SLP186 T02390150
KMIA 152253Z 00000KT 10SM BKN250 22/15 A3010 RMK AO2 SLP193 T02220150
KMIA 152353Z 15004KT 10SM BKN250 22/15 A3012 RMK AO2 SLP199 T02170150 10261 20217 53019
KMIA 160053Z 00000KT 10SM SCT250 21/15 A3014 RMK AO2 SLP205 T02110150
KMIA 160153Z 00000KT 10SM SCT250 20/15 A3014 RMK AO2 SLP207 T02000150
KMIA 160253Z 00000KT 10SM FEW080 SCT250 21/14 A3017 RMK AO2 SLP215 T02060144 53016
KMIA 160353Z 27005KT 10SM FEW080 BKN250 19/15 A3017 RMK AO2 SLP217 T01940150
KMIA 160453Z 00000KT 10SM BKN250 18/16 A3017 RMK AO2 SLP216 T01830161 402610117
KMIA 160553Z 33004KT 10SM BKN250 18/14 A3018 RMK AO2 SLP218 T01780144 10222 20172 51003
KMIA 160653Z 00000KT 10SM BKN250 19/14 A3017 RMK AO2 SLP216 T01890144